PWSweather.com
Personal Weather Stations
Station Observations
DAVIS2016
WorthingGB

WorthingGB

Lat: 50.8130266, Lon: -0.3832443000000012

Elevation: 34.8

Station Type: davis vantage vue 6250

Latest ConditionsUpdated 11:15:00 PM GMT Sunday, Dec 16, 2018
Currently Today's Max Today's Min Today's Average
Temperature 44.7°F7.1°C 49.5°F9.7°C 38.4°F3.6°C 45.8°F7.7°C
Dew Point 42.5°F5.8°C 46.8°F8.2°C 36.8°F2.7°C 43.3°F6.3°C
Winds 2.0 mph WSW3.2 kmh WSW 12.0 mph -19.3 kmh - - 3.4 mph 5.5 kmh
Wind Gusts 8.0 mph12.9 kmh 22.0 mph35.4 kmh - -
Humidity 92% 96% 83% 91%
Pressure 29.77 in1008.1 mb 29.77 in1008.1 mb 29.66 in1004.4 mb -
Precipitation - 0.17 in4.3 mm - -
Hour Temp Dew Point Humidity Winds Wind Gusts Pressure Precip Precip Rate Daily Precip Total
11:15 PM 44.7°F7.1°C 42.5°F5.8°C 92% 2.0 mph WSW3.2 kmh WSW 8.0 mph12.9 kmh 29.77 in1008.1 mb 0.00 in0.0 mm 0.00 in0.0 mm 0.17 in4.3 mm
11:00 PM 45.2°F7.3°C 43.0°F6.1°C 92% 3.0 mph WSW4.8 kmh WSW 11.0 mph17.7 kmh 29.76 in1007.8 mb 0.00 in0.0 mm 0.00 in0.0 mm 0.17 in4.3 mm
10:45 PM 45.7°F7.6°C 43.2°F6.2°C 91% 3.0 mph W4.8 kmh W 10.0 mph16.1 kmh 29.75 in1007.5 mb 0.00 in0.0 mm 0.00 in0.0 mm 0.17 in4.3 mm
10:30 PM 46.1°F7.8°C 43.6°F6.4°C 91% 4.0 mph WSW6.4 kmh WSW 11.0 mph17.7 kmh 29.74 in1007.1 mb 0.00 in0.0 mm 0.00 in0.0 mm 0.17 in4.3 mm
10:15 PM 46.4°F8.0°C 43.9°F6.6°C 91% 4.0 mph WSW6.4 kmh WSW 13.0 mph20.9 kmh 29.73 in1006.8 mb 0.00 in0.0 mm 0.00 in0.0 mm 0.17 in4.3 mm
10:00 PM 46.7°F8.2°C 44.2°F6.8°C 91% 4.0 mph WSW6.4 kmh WSW 13.0 mph20.9 kmh 29.73 in1006.8 mb 0.00 in0.0 mm 0.00 in0.0 mm 0.17 in4.3 mm
09:45 PM 46.9°F8.3°C 44.7°F7.1°C 92% 4.0 mph WSW6.4 kmh WSW 11.0 mph17.7 kmh 29.71 in1006.1 mb 0.00 in0.0 mm 0.00 in0.0 mm 0.17 in4.3 mm
09:30 PM 47.3°F8.5°C 44.8°F7.1°C 91% 4.0 mph WSW6.4 kmh WSW 13.0 mph20.9 kmh 29.71 in1006.1 mb 0.02 in0.5 mm 0.00 in0.0 mm 0.17 in4.3 mm
09:15 PM 47.7°F8.7°C 45.2°F7.3°C 91% 5.0 mph SW8.0 kmh SW 15.0 mph24.1 kmh 29.70 in1005.8 mb 0.02 in0.5 mm 0.00 in0.0 mm 0.17 in4.3 mm
09:00 PM 48.4°F9.1°C 45.9°F7.7°C 91% 7.0 mph SW11.3 kmh SW 19.0 mph30.6 kmh 29.69 in1005.4 mb 0.02 in0.5 mm 0.00 in0.0 mm 0.17 in4.3 mm
08:45 PM 48.4°F9.1°C 45.9°F7.7°C 91% 5.0 mph SW8.0 kmh SW 11.0 mph17.7 kmh 29.68 in1005.1 mb 0.02 in0.5 mm 0.04 in1.0 mm 0.17 in4.3 mm
08:30 PM 48.5°F9.2°C 46.0°F7.8°C 91% 4.0 mph SSW6.4 kmh SSW 10.0 mph16.1 kmh 29.68 in1005.1 mb 0.01 in0.3 mm 0.00 in0.0 mm 0.15 in3.8 mm
08:15 PM 48.3°F9.1°C 45.5°F7.5°C 90% 5.0 mph SW8.0 kmh SW 13.0 mph20.9 kmh 29.68 in1005.1 mb 0.01 in0.3 mm 0.00 in0.0 mm 0.15 in3.8 mm
08:00 PM 48.0°F8.9°C 45.5°F7.5°C 91% 6.0 mph SW9.7 kmh SW 12.0 mph19.3 kmh 29.68 in1005.1 mb 0.01 in0.3 mm 0.00 in0.0 mm 0.15 in3.8 mm
07:45 PM 48.0°F8.9°C 45.5°F7.5°C 91% 7.0 mph SW11.3 kmh SW 18.0 mph29.0 kmh 29.68 in1005.1 mb 0.02 in0.5 mm 0.00 in0.0 mm 0.15 in3.8 mm
07:30 PM 47.5°F8.6°C 45.3°F7.4°C 92% 7.0 mph SW11.3 kmh SW 18.0 mph29.0 kmh 29.67 in1004.7 mb 0.02 in0.5 mm 0.00 in0.0 mm 0.14 in3.6 mm
07:15 PM 47.7°F8.7°C 45.8°F7.7°C 93% 8.0 mph S12.9 kmh S 17.0 mph27.4 kmh 29.67 in1004.7 mb 0.02 in0.5 mm 0.00 in0.0 mm 0.14 in3.6 mm
07:00 PM 47.6°F8.7°C 45.4°F7.4°C 92% 9.0 mph S14.5 kmh S 18.0 mph29.0 kmh 29.67 in1004.7 mb 0.03 in0.8 mm 0.00 in0.0 mm 0.14 in3.6 mm
06:45 PM 47.2°F8.4°C 44.7°F7.1°C 91% 8.0 mph S12.9 kmh S 16.0 mph25.7 kmh 29.67 in1004.7 mb 0.05 in1.3 mm 0.00 in0.0 mm 0.13 in3.3 mm
06:30 PM 47.1°F8.4°C 44.3°F6.8°C 90% 9.0 mph S14.5 kmh S 18.0 mph29.0 kmh 29.68 in1005.1 mb 0.05 in1.3 mm 0.00 in0.0 mm 0.13 in3.3 mm
06:15 PM 47.0°F8.3°C 44.5°F6.9°C 91% 9.0 mph S14.5 kmh S 18.0 mph29.0 kmh 29.68 in1005.1 mb 0.06 in1.5 mm 0.00 in0.0 mm 0.12 in3.0 mm
06:00 PM 46.9°F8.3°C 44.7°F7.1°C 92% 7.0 mph SW11.3 kmh SW 16.0 mph25.7 kmh 29.68 in1005.1 mb 0.10 in2.5 mm 0.03 in0.8 mm 0.11 in2.8 mm
05:45 PM 47.2°F8.4°C 45.0°F7.2°C 92% 7.0 mph SW11.3 kmh SW 19.0 mph30.6 kmh 29.68 in1005.1 mb 0.08 in2.0 mm 0.04 in1.0 mm 0.09 in2.3 mm
05:30 PM 47.2°F8.4°C 45.0°F7.2°C 92% 8.0 mph SSW12.9 kmh SSW 18.0 mph29.0 kmh 29.68 in1005.1 mb 0.07 in1.8 mm 0.12 in3.0 mm 0.08 in2.0 mm
05:15 PM 48.2°F9.0°C 45.7°F7.6°C 91% 12.0 mph SSE19.3 kmh SSE 22.0 mph35.4 kmh 29.68 in1005.1 mb 0.04 in1.0 mm 0.16 in4.1 mm 0.05 in1.3 mm
05:00 PM 49.0°F9.4°C 46.5°F8.1°C 91% 10.0 mph SSE16.1 kmh SSE 18.0 mph29.0 kmh 29.67 in1004.7 mb 0.00 in0.0 mm 0.00 in0.0 mm 0.01 in0.3 mm
04:45 PM 48.9°F9.4°C 46.7°F8.2°C 92% 10.0 mph SSE16.1 kmh SSE 19.0 mph30.6 kmh 29.68 in1005.1 mb 0.00 in0.0 mm 0.00 in0.0 mm 0.01 in0.3 mm
04:30 PM 48.8°F9.3°C 46.6°F8.1°C 92% 9.0 mph SSE14.5 kmh SSE 15.0 mph24.1 kmh 29.68 in1005.1 mb 0.00 in0.0 mm 0.00 in0.0 mm 0.01 in0.3 mm
04:15 PM 48.8°F9.3°C 46.6°F8.1°C 92% 8.0 mph SSE12.9 kmh SSE 15.0 mph24.1 kmh 29.68 in1005.1 mb 0.00 in0.0 mm 0.00 in0.0 mm 0.01 in0.3 mm
04:00 PM 48.9°F9.4°C 46.7°F8.2°C 92% 7.0 mph SSE11.3 kmh SSE 14.0 mph22.5 kmh 29.69 in1005.4 mb 0.00 in0.0 mm 0.00 in0.0 mm 0.01 in0.3 mm
03:45 PM 48.9°F9.4°C 46.7°F8.2°C 92% 7.0 mph SSE11.3 kmh SSE 14.0 mph22.5 kmh 29.69 in1005.4 mb 0.00 in0.0 mm 0.00 in0.0 mm 0.01 in0.3 mm
03:30 PM 48.9°F9.4°C 46.4°F8.0°C 91% 8.0 mph SSE12.9 kmh SSE 13.0 mph20.9 kmh 29.69 in1005.4 mb 0.00 in0.0 mm 0.00 in0.0 mm 0.01 in0.3 mm
03:15 PM 48.9°F9.4°C 46.4°F8.0°C 91% 8.0 mph SSE12.9 kmh SSE 15.0 mph24.1 kmh 29.70 in1005.8 mb 0.00 in0.0 mm 0.00 in0.0 mm 0.01 in0.3 mm
03:00 PM 49.0°F9.4°C 46.5°F8.1°C 91% 7.0 mph SSE11.3 kmh SSE 15.0 mph24.1 kmh 29.70 in1005.8 mb 0.00 in0.0 mm 0.00 in0.0 mm 0.01 in0.3 mm
02:45 PM 49.1°F9.5°C 46.6°F8.1°C 91% 5.0 mph SSE8.0 kmh SSE 12.0 mph19.3 kmh 29.70 in1005.8 mb 0.00 in0.0 mm 0.00 in0.0 mm 0.01 in0.3 mm
02:30 PM 49.2°F9.6°C 46.4°F8.0°C 90% 7.0 mph S11.3 kmh S 13.0 mph20.9 kmh 29.70 in1005.8 mb 0.00 in0.0 mm 0.00 in0.0 mm 0.01 in0.3 mm
02:15 PM 49.1°F9.5°C 46.3°F7.9°C 90% 7.0 mph S11.3 kmh S 12.0 mph19.3 kmh 29.70 in1005.8 mb 0.00 in0.0 mm 0.00 in0.0 mm 0.01 in0.3 mm
02:00 PM 49.1°F9.5°C 46.6°F8.1°C 91% 5.0 mph S8.0 kmh S 13.0 mph20.9 kmh 29.70 in1005.8 mb 0.00 in0.0 mm 0.00 in0.0 mm 0.01 in0.3 mm
01:45 PM 49.3°F9.6°C 46.8°F8.2°C 91% 6.0 mph S9.7 kmh S 12.0 mph19.3 kmh 29.70 in1005.8 mb 0.00 in0.0 mm 0.00 in0.0 mm 0.01 in0.3 mm
01:30 PM 49.5°F9.7°C 46.7°F8.2°C 90% 6.0 mph S9.7 kmh S 11.0 mph17.7 kmh 29.71 in1006.1 mb 0.00 in0.0 mm 0.00 in0.0 mm 0.01 in0.3 mm
01:15 PM 49.1°F9.5°C 45.4°F7.4°C 87% 4.0 mph SSE6.4 kmh SSE 7.0 mph11.3 kmh 29.72 in1006.4 mb 0.00 in0.0 mm 0.00 in0.0 mm 0.01 in0.3 mm
01:00 PM 48.8°F9.3°C 44.5°F6.9°C 85% 2.0 mph SSE3.2 kmh SSE 6.0 mph9.7 kmh 29.72 in1006.4 mb 0.00 in0.0 mm 0.00 in0.0 mm 0.01 in0.3 mm
12:45 PM 48.6°F9.2°C 43.7°F6.5°C 83% 2.0 mph S3.2 kmh S 5.0 mph8.0 kmh 29.72 in1006.4 mb 0.00 in0.0 mm 0.00 in0.0 mm 0.01 in0.3 mm
12:30 PM 48.3°F9.1°C 44.0°F6.7°C 85% 2.0 mph SW3.2 kmh SW 5.0 mph8.0 kmh 29.72 in1006.4 mb 0.01 in0.3 mm 0.00 in0.0 mm 0.01 in0.3 mm
12:15 PM 48.5°F9.2°C 44.5°F6.9°C 86% 2.0 mph WSW3.2 kmh WSW 6.0 mph9.7 kmh 29.73 in1006.8 mb 0.01 in0.3 mm 0.00 in0.0 mm 0.01 in0.3 mm
12:00 PM 48.5°F9.2°C 43.9°F6.6°C 84% 4.0 mph SSW6.4 kmh SSW 9.0 mph14.5 kmh 29.73 in1006.8 mb 0.01 in0.3 mm 0.00 in0.0 mm 0.01 in0.3 mm
11:45 AM 48.6°F9.2°C 44.3°F6.8°C 85% 5.0 mph SSW8.0 kmh SSW 13.0 mph20.9 kmh 29.74 in1007.1 mb 0.01 in0.3 mm 0.04 in1.0 mm 0.01 in0.3 mm
11:30 AM 48.3°F9.1°C 45.5°F7.5°C 90% 1.0 mph SSW1.6 kmh SSW 8.0 mph12.9 kmh 29.74 in1007.1 mb 0.00 in0.0 mm 0.00 in0.0 mm 0.00 in0.0 mm
11:15 AM 47.7°F8.7°C 45.5°F7.5°C 92% Calm Calm -- 29.74 in1007.1 mb 0.00 in0.0 mm 0.00 in0.0 mm 0.00 in0.0 mm
11:00 AM 47.0°F8.3°C 45.1°F7.3°C 93% Calm Calm -- 29.74 in1007.1 mb 0.00 in0.0 mm 0.00 in0.0 mm 0.00 in0.0 mm
10:45 AM 46.2°F7.9°C 44.6°F7.0°C 94% Calm Calm -- 29.75 in1007.5 mb 0.00 in0.0 mm 0.00 in0.0 mm 0.00 in0.0 mm
10:30 AM 44.8°F7.1°C 43.2°F6.2°C 94% Calm Calm 1.0 mph1.6 kmh 29.75 in1007.5 mb 0.00 in0.0 mm 0.00 in0.0 mm 0.00 in0.0 mm
10:15 AM 44.3°F6.8°C 42.7°F5.9°C 94% Calm Calm 1.0 mph1.6 kmh 29.75 in1007.5 mb 0.00 in0.0 mm 0.00 in0.0 mm 0.00 in0.0 mm
10:00 AM 43.8°F6.6°C 42.2°F5.7°C 94% Calm Calm -- 29.75 in1007.5 mb 0.00 in0.0 mm 0.00 in0.0 mm 0.00 in0.0 mm
09:45 AM 43.0°F6.1°C 41.7°F5.4°C 95% Calm Calm -- 29.75 in1007.5 mb 0.00 in0.0 mm 0.00 in0.0 mm 0.00 in0.0 mm
09:30 AM 42.5°F5.8°C 41.4°F5.2°C 96% Calm Calm -- 29.75 in1007.5 mb 0.00 in0.0 mm 0.00 in0.0 mm 0.00 in0.0 mm
09:15 AM 41.5°F5.3°C 40.4°F4.7°C 96% Calm Calm -- 29.75 in1007.5 mb 0.00 in0.0 mm 0.00 in0.0 mm 0.00 in0.0 mm
09:00 AM 39.9°F4.4°C 38.6°F3.7°C 95% Calm Calm -- 29.74 in1007.1 mb 0.00 in0.0 mm 0.00 in0.0 mm 0.00 in0.0 mm
08:45 AM 39.3°F4.1°C 38.0°F3.3°C 95% Calm Calm 2.0 mph3.2 kmh 29.74 in1007.1 mb 0.00 in0.0 mm 0.00 in0.0 mm 0.00 in0.0 mm
08:30 AM 38.6°F3.7°C 37.3°F2.9°C 95% Calm Calm 1.0 mph1.6 kmh 29.74 in1007.1 mb 0.00 in0.0 mm 0.00 in0.0 mm 0.00 in0.0 mm
08:15 AM 38.4°F3.6°C 36.8°F2.7°C 94% Calm Calm 1.0 mph1.6 kmh 29.74 in1007.1 mb 0.00 in0.0 mm 0.00 in0.0 mm 0.00 in0.0 mm
08:00 AM 39.3°F4.1°C 37.7°F3.2°C 94% Calm Calm 2.0 mph3.2 kmh 29.73 in1006.8 mb 0.00 in0.0 mm 0.00 in0.0 mm 0.00 in0.0 mm
07:45 AM 39.8°F4.3°C 38.5°F3.6°C 95% Calm Calm -- 29.73 in1006.8 mb 0.00 in0.0 mm 0.00 in0.0 mm 0.00 in0.0 mm
07:30 AM 39.4°F4.1°C 37.8°F3.2°C 94% Calm Calm -- 29.73 in1006.8 mb 0.00 in0.0 mm 0.00 in0.0 mm 0.00 in0.0 mm
07:15 AM 39.6°F4.2°C 37.7°F3.2°C 93% Calm Calm -- 29.73 in1006.8 mb 0.00 in0.0 mm 0.00 in0.0 mm 0.00 in0.0 mm
07:00 AM 40.1°F4.5°C 38.2°F3.4°C 93% Calm Calm -- 29.73 in1006.8 mb 0.00 in0.0 mm 0.00 in0.0 mm 0.00 in0.0 mm
06:45 AM 40.9°F4.9°C 38.8°F3.8°C 92% Calm Calm -- 29.73 in1006.8 mb 0.00 in0.0 mm 0.00 in0.0 mm 0.00 in0.0 mm
06:30 AM 42.3°F5.7°C 40.4°F4.7°C 93% Calm Calm 1.0 mph1.6 kmh 29.73 in1006.8 mb 0.00 in0.0 mm 0.00 in0.0 mm 0.00 in0.0 mm
06:15 AM 42.2°F5.7°C 40.3°F4.6°C 93% Calm Calm 1.0 mph1.6 kmh 29.73 in1006.8 mb 0.00 in0.0 mm 0.00 in0.0 mm 0.00 in0.0 mm
06:00 AM 41.9°F5.5°C 40.0°F4.4°C 93% Calm Calm 1.0 mph1.6 kmh 29.72 in1006.4 mb 0.00 in0.0 mm 0.00 in0.0 mm 0.00 in0.0 mm
05:45 AM 41.9°F5.5°C 39.7°F4.3°C 92% Calm Calm 1.0 mph1.6 kmh 29.72 in1006.4 mb 0.00 in0.0 mm 0.00 in0.0 mm 0.00 in0.0 mm
05:30 AM 43.0°F6.1°C 40.8°F4.9°C 92% Calm Calm 2.0 mph3.2 kmh 29.72 in1006.4 mb 0.00 in0.0 mm 0.00 in0.0 mm 0.00 in0.0 mm
05:15 AM 43.2°F6.2°C 41.3°F5.2°C 93% 1.0 mph W1.6 kmh W 2.0 mph3.2 kmh 29.72 in1006.4 mb 0.00 in0.0 mm 0.00 in0.0 mm 0.00 in0.0 mm
05:00 AM 42.7°F5.9°C 40.8°F4.9°C 93% 1.0 mph WSW1.6 kmh WSW 3.0 mph4.8 kmh 29.71 in1006.1 mb 0.00 in0.0 mm 0.00 in0.0 mm 0.00 in0.0 mm
04:45 AM 42.5°F5.8°C 40.3°F4.6°C 92% Calm Calm 1.0 mph1.6 kmh 29.71 in1006.1 mb 0.00 in0.0 mm 0.00 in0.0 mm 0.00 in0.0 mm
04:30 AM 43.7°F6.5°C 41.8°F5.4°C 93% Calm Calm 2.0 mph3.2 kmh 29.71 in1006.1 mb 0.00 in0.0 mm 0.00 in0.0 mm 0.00 in0.0 mm
04:15 AM 43.5°F6.4°C 41.6°F5.3°C 93% Calm Calm 2.0 mph3.2 kmh 29.71 in1006.1 mb 0.00 in0.0 mm 0.00 in0.0 mm 0.00 in0.0 mm
04:00 AM 42.9°F6.1°C 41.0°F5.0°C 93% Calm Calm -- 29.71 in1006.1 mb 0.00 in0.0 mm 0.00 in0.0 mm 0.00 in0.0 mm
03:45 AM 42.9°F6.1°C 40.5°F4.7°C 91% Calm Calm -- 29.71 in1006.1 mb 0.00 in0.0 mm 0.00 in0.0 mm 0.00 in0.0 mm
03:30 AM 44.0°F6.7°C 41.8°F5.4°C 92% Calm Calm -- 29.70 in1005.8 mb 0.00 in0.0 mm 0.00 in0.0 mm 0.00 in0.0 mm
03:15 AM 44.5°F6.9°C 42.3°F5.7°C 92% Calm Calm 1.0 mph1.6 kmh 29.70 in1005.8 mb 0.00 in0.0 mm 0.00 in0.0 mm 0.00 in0.0 mm
03:00 AM 44.3°F6.8°C 42.1°F5.6°C 92% Calm Calm 1.0 mph1.6 kmh 29.69 in1005.4 mb 0.00 in0.0 mm 0.00 in0.0 mm 0.00 in0.0 mm
02:45 AM 44.6°F7.0°C 42.1°F5.6°C 91% Calm Calm 1.0 mph1.6 kmh 29.70 in1005.8 mb 0.00 in0.0 mm 0.00 in0.0 mm 0.00 in0.0 mm
02:30 AM 45.3°F7.4°C 42.8°F6.0°C 91% 1.0 mph W1.6 kmh W 5.0 mph8.0 kmh 29.69 in1005.4 mb 0.00 in0.0 mm 0.00 in0.0 mm 0.00 in0.0 mm
02:15 AM 45.3°F7.4°C 42.8°F6.0°C 91% 1.0 mph WSW1.6 kmh WSW 4.0 mph6.4 kmh 29.69 in1005.4 mb 0.00 in0.0 mm 0.00 in0.0 mm 0.00 in0.0 mm
02:00 AM 45.7°F7.6°C 42.9°F6.1°C 90% 1.0 mph WSW1.6 kmh WSW 6.0 mph9.7 kmh 29.69 in1005.4 mb 0.00 in0.0 mm 0.00 in0.0 mm 0.00 in0.0 mm
01:45 AM 45.9°F7.7°C 42.8°F6.0°C 89% 1.0 mph WSW1.6 kmh WSW 5.0 mph8.0 kmh 29.69 in1005.4 mb 0.00 in0.0 mm 0.00 in0.0 mm 0.00 in0.0 mm
01:30 AM 46.5°F8.1°C 43.1°F6.2°C 88% 2.0 mph WSW3.2 kmh WSW 8.0 mph12.9 kmh 29.68 in1005.1 mb 0.00 in0.0 mm 0.00 in0.0 mm 0.00 in0.0 mm
01:15 AM 46.7°F8.2°C 43.3°F6.3°C 88% 3.0 mph WSW4.8 kmh WSW 9.0 mph14.5 kmh 29.68 in1005.1 mb 0.00 in0.0 mm 0.00 in0.0 mm 0.00 in0.0 mm
01:00 AM 46.8°F8.2°C 43.4°F6.3°C 88% 4.0 mph WSW6.4 kmh WSW 10.0 mph16.1 kmh 29.68 in1005.1 mb 0.00 in0.0 mm 0.00 in0.0 mm 0.00 in0.0 mm
12:45 AM 46.9°F8.3°C 43.2°F6.2°C 87% 4.0 mph WSW6.4 kmh WSW 11.0 mph17.7 kmh 29.67 in1004.7 mb 0.00 in0.0 mm 0.00 in0.0 mm 0.00 in0.0 mm
12:30 AM 47.1°F8.4°C 43.4°F6.3°C 87% 4.0 mph WSW6.4 kmh WSW 13.0 mph20.9 kmh 29.67 in1004.7 mb 0.00 in0.0 mm 0.00 in0.0 mm 0.00 in0.0 mm
12:15 AM 47.1°F8.4°C 43.7°F6.5°C 88% 5.0 mph WSW8.0 kmh WSW 11.0 mph17.7 kmh 29.67 in1004.7 mb 0.00 in0.0 mm 0.00 in0.0 mm 0.00 in0.0 mm
12:00 AM 47.0°F8.3°C 43.3°F6.3°C 87% 4.0 mph WSW6.4 kmh WSW 9.0 mph14.5 kmh 29.66 in1004.4 mb 0.00 in0.0 mm 0.00 in0.0 mm 0.00 in0.0 mm